Time;durP1;ratioP1;P1;durP2;ratioP2;P2;SDS_P1;SDS_P2;PMS_P1;PMS_P2;Temp;Humidity;BMP_temperature;BMP_pressure;BME280_temperature;BME280_humidity;BME280_pressure;Samples;Min_cycle;Max_cycle;Signal;HPM_P1;HPM_P2
2022/03/22 00:02:10;;;;;;;7.22;4.93;;;;;;;;;;5101644;28;20176;-60
2022/03/22 00:04:35;;;;;;;9.23;6.25;;;;;;;;;;5095965;28;20177;-59
2022/03/22 00:07:00;;;;;;;7.03;5.22;;;;;;;;;;5097748;28;20172;-60
2022/03/22 00:09:26;;;;;;;4.95;4.45;;;;;;;;;;5096862;28;20920;-60
2022/03/22 00:11:51;;;;;;;5.45;4.78;;;;;;;;;;5098434;28;20922;-60
2022/03/22 00:14:17;;;;;;;8.40;5.65;;;;;;;;;;5097098;28;20172;-59
2022/03/22 00:16:42;;;;;;;7.10;5.50;;;;;;;;;;5092513;28;20188;-60
2022/03/22 00:19:07;;;;;;;9.32;5.78;;;;;;;;;;5090848;28;20188;-60
2022/03/22 00:21:35;;;;;;;8.05;5.85;;;;;;;;;;5096385;28;20183;-60
2022/03/22 00:24:01;;;;;;;8.70;5.55;;;;;;;;;;5089880;28;20184;-60
2022/03/22 00:26:26;;;;;;;9.18;5.82;;;;;;;;;;5096553;28;20184;-60
2022/03/22 00:28:52;;;;;;;7.35;5.43;;;;;;;;;;5085301;28;20214;-61
2022/03/22 00:31:18;;;;;;;6.43;4.82;;;;;;;;;;5096326;28;20278;-60
2022/03/22 00:33:43;;;;;;;6.78;5.55;;;;;;;;;;5099118;28;20554;-59
2022/03/22 00:36:10;;;;;;;6.53;4.97;;;;;;;;;;5101134;28;20240;-60
2022/03/22 00:38:36;;;;;;;6.65;5.90;;;;;;;;;;5100461;28;20186;-60
2022/03/22 00:41:01;;;;;;;7.63;5.38;;;;;;;;;;5095318;28;20196;-60
2022/03/22 00:43:26;;;;;;;9.23;5.88;;;;;;;;;;5089665;28;20641;-60
2022/03/22 00:45:52;;;;;;;8.05;5.95;;;;;;;;;;5100920;28;20236;-60
2022/03/22 00:48:17;;;;;;;6.95;6.00;;;;;;;;;;5090185;28;20204;-60
2022/03/22 00:50:47;;;;;;;6.07;4.90;;;;;;;;;;5093776;28;20855;-60
2022/03/22 00:53:13;;;;;;;6.25;5.25;;;;;;;;;;5097780;28;20677;-60
2022/03/22 00:55:40;;;;;;;6.82;5.50;;;;;;;;;;5097848;28;20244;-60
2022/03/22 00:58:06;;;;;;;7.72;6.00;;;;;;;;;;5090535;28;20191;-60
2022/03/22 01:00:33;;;;;;;8.32;6.05;;;;;;;;;;5104030;28;20179;-60
2022/03/22 01:02:59;;;;;;;7.55;5.97;;;;;;;;;;5101384;28;20183;-60
2022/03/22 01:05:26;;;;;;;6.85;5.53;;;;;;;;;;5096758;28;20230;-60
2022/03/22 01:07:52;;;;;;;6.55;5.82;;;;;;;;;;5090791;28;20274;-60
2022/03/22 01:10:19;;;;;;;8.38;5.78;;;;;;;;;;5101687;28;20183;-60
2022/03/22 01:12:44;;;;;;;9.40;6.65;;;;;;;;;;5096276;28;20175;-60
2022/03/22 01:15:15;;;;;;;7.03;5.68;;;;;;;;;;5097813;28;20548;-60
2022/03/22 01:17:40;;;;;;;8.88;6.10;;;;;;;;;;5097985;28;20608;-60
2022/03/22 01:20:10;;;;;;;9.48;5.50;;;;;;;;;;5094564;28;20175;-60
2022/03/22 01:22:38;;;;;;;7.10;5.57;;;;;;;;;;5098276;28;21286;-60
2022/03/22 01:25:06;;;;;;;6.30;5.47;;;;;;;;;;5097528;28;20179;-60
2022/03/22 01:27:31;;;;;;;7.30;5.55;;;;;;;;;;5098654;28;20188;-60
2022/03/22 01:29:56;;;;;;;6.07;5.45;;;;;;;;;;5092952;28;20179;-60
2022/03/22 01:32:22;;;;;;;9.00;5.53;;;;;;;;;;5099436;28;20199;-60
2022/03/22 01:34:47;;;;;;;7.65;5.45;;;;;;;;;;5096786;28;20171;-60
2022/03/22 01:37:12;;;;;;;8.40;6.03;;;;;;;;;;5100263;28;20183;-60
2022/03/22 01:39:38;;;;;;;10.02;5.38;;;;;;;;;;5100056;28;20214;-59
2022/03/22 01:42:04;;;;;;;8.20;5.68;;;;;;;;;;5091001;28;20182;-60
2022/03/22 01:44:32;;;;;;;8.00;6.00;;;;;;;;;;5104647;28;20649;-60
2022/03/22 01:47:04;;;;;;;9.07;6.90;;;;;;;;;;5090871;28;20187;-60
2022/03/22 01:49:29;;;;;;;9.57;5.95;;;;;;;;;;5100171;28;20192;-60
2022/03/22 01:51:55;;;;;;;7.75;5.60;;;;;;;;;;5090505;28;20637;-59
2022/03/22 01:54:20;;;;;;;7.72;5.65;;;;;;;;;;5075038;28;20781;-60
2022/03/22 01:56:46;;;;;;;8.55;5.63;;;;;;;;;;5095338;28;20184;-60
2022/03/22 01:59:11;;;;;;;6.82;5.47;;;;;;;;;;5097143;28;20168;-60
2022/03/22 02:07:05;;;;;;;9.05;6.35;;;;;;;;;;5102426;28;20691;-60
2022/03/22 02:09:30;;;;;;;7.57;5.07;;;;;;;;;;5101093;28;20176;-60
2022/03/22 02:11:55;;;;;;;9.73;4.95;;;;;;;;;;5102782;28;20854;-60
2022/03/22 02:14:21;;;;;;;5.88;4.72;;;;;;;;;;5082400;28;20184;-60
2022/03/22 02:16:46;;;;;;;5.43;4.85;;;;;;;;;;5076294;28;20337;-60
2022/03/22 02:19:13;;;;;;;7.35;5.13;;;;;;;;;;5078319;28;21027;-60
2022/03/22 02:21:39;;;;;;;8.75;6.47;;;;;;;;;;5105514;28;20613;-60
2022/03/22 02:24:05;;;;;;;9.07;5.43;;;;;;;;;;5099812;28;20176;-60
2022/03/22 02:26:30;;;;;;;6.88;5.32;;;;;;;;;;5098232;28;20195;-60
2022/03/22 02:28:56;;;;;;;9.45;5.60;;;;;;;;;;5091278;28;20206;-60
2022/03/22 02:31:22;;;;;;;8.82;5.35;;;;;;;;;;5095652;28;20203;-60
2022/03/22 02:33:48;;;;;;;9.73;6.78;;;;;;;;;;5102215;28;20224;-60
2022/03/22 02:36:13;;;;;;;9.65;5.35;;;;;;;;;;5099366;28;20179;-60
2022/03/22 02:38:38;;;;;;;7.72;6.20;;;;;;;;;;5100147;28;20210;-60
2022/03/22 02:41:05;;;;;;;9.45;5.97;;;;;;;;;;5103691;28;20226;-60
2022/03/22 02:43:30;;;;;;;8.93;5.82;;;;;;;;;;5097722;28;20179;-60
2022/03/22 02:45:55;;;;;;;8.48;6.25;;;;;;;;;;5098956;28;20175;-60
2022/03/22 02:48:21;;;;;;;8.63;6.07;;;;;;;;;;5098876;28;20273;-60
2022/03/22 02:50:46;;;;;;;8.40;6.55;;;;;;;;;;5109435;28;20295;-60
2022/03/22 02:53:11;;;;;;;10.93;6.35;;;;;;;;;;5100048;28;20263;-60
2022/03/22 02:55:37;;;;;;;8.77;6.78;;;;;;;;;;5101504;28;20176;-60
2022/03/22 02:58:02;;;;;;;10.60;7.25;;;;;;;;;;5098531;28;20746;-60
2022/03/22 03:00:28;;;;;;;9.93;6.82;;;;;;;;;;5099860;28;20176;-60
2022/03/22 03:02:53;;;;;;;10.00;7.53;;;;;;;;;;5102558;28;20271;-60
2022/03/22 03:05:20;;;;;;;9.98;6.15;;;;;;;;;;5089733;28;20549;-60
2022/03/22 03:07:46;;;;;;;11.30;6.88;;;;;;;;;;5101298;28;20286;-60
2022/03/22 03:10:11;;;;;;;12.68;7.60;;;;;;;;;;5098440;28;20262;-60
2022/03/22 03:12:37;;;;;;;14.32;7.78;;;;;;;;;;5104798;28;20176;-60
2022/03/22 03:15:03;;;;;;;19.33;7.78;;;;;;;;;;5108829;28;20659;-60
2022/03/22 03:17:29;;;;;;;12.07;6.85;;;;;;;;;;5092121;28;20189;-60
2022/03/22 03:19:54;;;;;;;9.52;6.72;;;;;;;;;;5078238;28;20180;-60
2022/03/22 03:22:19;;;;;;;10.18;7.05;;;;;;;;;;5080734;28;20176;-60
2022/03/22 03:24:45;;;;;;;17.20;7.65;;;;;;;;;;5100430;28;20187;-60
2022/03/22 03:27:10;;;;;;;11.43;6.47;;;;;;;;;;5099362;28;20176;-60
2022/03/22 03:29:35;;;;;;;16.05;7.28;;;;;;;;;;5099842;28;20208;-59
2022/03/22 03:32:01;;;;;;;13.68;6.30;;;;;;;;;;5095878;28;20176;-60
2022/03/22 03:34:26;;;;;;;13.25;6.63;;;;;;;;;;5108153;28;20664;-60
2022/03/22 03:36:51;;;;;;;8.90;5.82;;;;;;;;;;5095385;28;20600;-60
2022/03/22 03:39:17;;;;;;;10.60;6.53;;;;;;;;;;5079210;28;20172;-60
2022/03/22 03:41:55;;;;;;;11.48;7.13;;;;;;;;;;5076896;28;20236;-60
2022/03/22 03:47:07;;;;;;;13.10;6.78;;;;;;;;;;5095065;28;20176;-60
2022/03/22 03:49:37;;;;;;;9.52;7.00;;;;;;;;;;5089720;28;20642;-60
2022/03/22 03:52:03;;;;;;;12.25;7.45;;;;;;;;;;5103184;28;20572;-60
2022/03/22 03:54:28;;;;;;;13.57;7.57;;;;;;;;;;5102641;28;20180;-60
2022/03/22 03:56:53;;;;;;;13.75;7.63;;;;;;;;;;5095652;28;20177;-60
2022/03/22 03:59:19;;;;;;;16.55;7.55;;;;;;;;;;5099742;28;20175;-60
2022/03/22 04:01:44;;;;;;;10.55;7.22;;;;;;;;;;5097348;28;20171;-60
2022/03/22 04:04:10;;;;;;;12.52;8.40;;;;;;;;;;5099769;28;20176;-61
2022/03/22 04:06:35;;;;;;;12.38;7.50;;;;;;;;;;5103969;27;20176;-61
2022/03/22 04:09:00;;;;;;;9.27;6.88;;;;;;;;;;5099405;28;20692;-60
2022/03/22 04:11:25;;;;;;;10.25;6.90;;;;;;;;;;5092586;28;20727;-61
2022/03/22 04:13:51;;;;;;;12.20;7.85;;;;;;;;;;5097074;28;20655;-61
2022/03/22 04:16:16;;;;;;;9.85;7.18;;;;;;;;;;5100732;28;20288;-60
2022/03/22 04:18:41;;;;;;;11.07;7.25;;;;;;;;;;5101289;28;20206;-61
2022/03/22 04:21:07;;;;;;;13.45;7.97;;;;;;;;;;5094598;28;20364;-60
2022/03/22 04:23:33;;;;;;;13.70;8.70;;;;;;;;;;5096508;28;20205;-60
2022/03/22 04:25:58;;;;;;;11.43;8.02;;;;;;;;;;5100151;28;20232;-60
2022/03/22 04:33:51;;;;;;;9.90;7.18;;;;;;;;;;5096634;28;20199;-60
2022/03/22 04:36:17;;;;;;;9.60;7.32;;;;;;;;;;5102247;28;20629;-60
2022/03/22 04:38:42;;;;;;;11.73;7.95;;;;;;;;;;5102130;28;20179;-60
2022/03/22 04:41:08;;;;;;;12.18;8.52;;;;;;;;;;5102627;28;20210;-60
2022/03/22 04:43:33;;;;;;;10.82;7.65;;;;;;;;;;5096788;28;20707;-60
2022/03/22 04:45:59;;;;;;;11.40;8.02;;;;;;;;;;5098542;28;20183;-60
2022/03/22 04:48:24;;;;;;;12.00;7.85;;;;;;;;;;5101267;28;20191;-60
2022/03/22 04:56:43;;;;;;;11.48;8.32;;;;;;;;;;5095522;28;20278;-60
2022/03/22 04:59:03;;;;;;;13.05;8.82;;;;;;;;;;5096252;28;20178;-59
2022/03/22 05:01:28;;;;;;;13.75;9.25;;;;;;;;;;5097997;28;20183;-59
2022/03/22 05:03:54;;;;;;;11.55;8.27;;;;;;;;;;5095555;28;20267;-59
2022/03/22 05:06:25;;;;;;;11.55;7.82;;;;;;;;;;5097588;28;20174;-59
2022/03/22 05:08:51;;;;;;;13.45;7.35;;;;;;;;;;5095039;28;20192;-59
2022/03/22 05:11:16;;;;;;;15.00;9.13;;;;;;;;;;5100358;28;20194;-59
2022/03/22 05:13:41;;;;;;;15.68;8.95;;;;;;;;;;5099226;28;20672;-59
2022/03/22 05:16:07;;;;;;;21.55;11.00;;;;;;;;;;5099027;28;20176;-59
2022/03/22 05:18:34;;;;;;;21.45;10.45;;;;;;;;;;5095918;28;20263;-59
2022/03/22 05:21:01;;;;;;;16.20;11.43;;;;;;;;;;5095986;28;20188;-59
2022/03/22 05:23:26;;;;;;;17.80;11.40;;;;;;;;;;5092501;28;20180;-59
2022/03/22 05:25:52;;;;;;;19.75;11.70;;;;;;;;;;5096378;28;20179;-59
2022/03/22 05:28:17;;;;;;;19.55;11.38;;;;;;;;;;5097987;28;20580;-59
2022/03/22 05:30:42;;;;;;;16.05;10.70;;;;;;;;;;5106005;28;20183;-59
2022/03/22 05:33:08;;;;;;;19.83;11.45;;;;;;;;;;5088308;28;20263;-59
2022/03/22 05:35:33;;;;;;;22.00;10.75;;;;;;;;;;5092118;28;20168;-59
2022/03/22 05:37:59;;;;;;;15.60;9.75;;;;;;;;;;5101004;28;20183;-59
2022/03/22 05:40:24;;;;;;;14.40;8.40;;;;;;;;;;5104311;28;20187;-59
2022/03/22 05:42:51;;;;;;;14.77;7.85;;;;;;;;;;5097540;28;20229;-59
2022/03/22 05:45:17;;;;;;;14.32;8.80;;;;;;;;;;5078724;28;20223;-59
2022/03/22 05:47:42;;;;;;;14.02;8.93;;;;;;;;;;5076301;28;20275;-59
2022/03/22 05:50:09;;;;;;;15.77;8.05;;;;;;;;;;5082882;28;20232;-59
2022/03/22 05:52:34;;;;;;;16.70;8.48;;;;;;;;;;5103928;28;20190;-59
2022/03/22 05:55:00;;;;;;;13.23;7.53;;;;;;;;;;5091451;28;20271;-59
2022/03/22 05:57:25;;;;;;;18.73;8.68;;;;;;;;;;5089407;28;20210;-59
2022/03/22 05:59:50;;;;;;;11.00;8.52;;;;;;;;;;5110415;28;20175;-59
2022/03/22 06:02:16;;;;;;;17.67;7.45;;;;;;;;;;5103647;28;20628;-60
2022/03/22 06:04:41;;;;;;;11.57;7.18;;;;;;;;;;5107907;28;20187;-59
2022/03/22 06:07:06;;;;;;;14.75;9.05;;;;;;;;;;5078973;28;20642;-59
2022/03/22 06:09:32;;;;;;;24.90;15.18;;;;;;;;;;5100509;28;20176;-59
2022/03/22 06:11:57;;;;;;;16.33;10.10;;;;;;;;;;5106414;28;20240;-59
2022/03/22 06:14:22;;;;;;;21.50;10.55;;;;;;;;;;5107214;28;20172;-59
2022/03/22 06:16:48;;;;;;;18.25;9.30;;;;;;;;;;5107822;28;20264;-59
2022/03/22 06:19:13;;;;;;;11.65;8.77;;;;;;;;;;5102735;28;20176;-59
2022/03/22 06:21:38;;;;;;;11.23;7.97;;;;;;;;;;5097925;28;20176;-59
2022/03/22 06:24:03;;;;;;;10.63;7.72;;;;;;;;;;5092258;28;20212;-59
2022/03/22 06:26:29;;;;;;;13.68;8.02;;;;;;;;;;5095484;28;20179;-59
2022/03/22 06:28:54;;;;;;;14.55;9.63;;;;;;;;;;5099275;27;20906;-59
2022/03/22 06:31:19;;;;;;;14.57;9.98;;;;;;;;;;5100679;28;20172;-60
2022/03/22 06:33:45;;;;;;;12.82;9.25;;;;;;;;;;5099817;28;20564;-60
2022/03/22 06:36:10;;;;;;;12.52;9.20;;;;;;;;;;5100125;28;20179;-60
2022/03/22 06:38:36;;;;;;;10.40;6.88;;;;;;;;;;5105237;28;20668;-60
2022/03/22 06:41:02;;;;;;;11.02;7.22;;;;;;;;;;5096970;28;20232;-60
2022/03/22 06:43:27;;;;;;;11.98;7.13;;;;;;;;;;5101830;28;20172;-60
2022/03/22 06:45:53;;;;;;;10.90;6.95;;;;;;;;;;5103615;28;20177;-60
2022/03/22 06:48:18;;;;;;;12.75;8.35;;;;;;;;;;5098904;28;20664;-60
2022/03/22 06:50:44;;;;;;;9.35;7.45;;;;;;;;;;5099452;28;20192;-60
2022/03/22 06:53:10;;;;;;;10.68;7.55;;;;;;;;;;5102197;28;20176;-59
2022/03/22 06:55:36;;;;;;;13.63;8.75;;;;;;;;;;5098345;28;20186;-60
2022/03/22 06:58:02;;;;;;;10.88;7.85;;;;;;;;;;5096199;28;20180;-60
2022/03/22 07:00:31;;;;;;;11.65;8.02;;;;;;;;;;5098760;28;20640;-60
2022/03/22 07:02:57;;;;;;;10.15;7.18;;;;;;;;;;5100615;28;20255;-60
2022/03/22 07:05:22;;;;;;;16.25;9.45;;;;;;;;;;5097058;28;21026;-60
2022/03/22 07:07:47;;;;;;;13.50;7.90;;;;;;;;;;5094456;28;20200;-60
2022/03/22 07:10:16;;;;;;;14.52;8.23;;;;;;;;;;5078329;28;20173;-60
2022/03/22 07:12:51;;;;;;;9.95;7.63;;;;;;;;;;5099413;28;20655;-60
2022/03/22 07:15:16;;;;;;;15.15;10.73;;;;;;;;;;5104170;28;20208;-60
2022/03/22 07:17:42;;;;;;;11.90;8.18;;;;;;;;;;5099820;28;20184;-60
2022/03/22 07:20:07;;;;;;;15.82;9.90;;;;;;;;;;5099334;28;20263;-60
2022/03/22 07:22:32;;;;;;;13.82;7.63;;;;;;;;;;5105103;28;20179;-60
2022/03/22 07:24:58;;;;;;;11.40;7.35;;;;;;;;;;5099270;28;20262;-60
2022/03/22 07:27:23;;;;;;;12.90;8.25;;;;;;;;;;5104728;28;20676;-60
2022/03/22 07:29:50;;;;;;;11.93;7.63;;;;;;;;;;5092677;28;20879;-60
2022/03/22 07:32:16;;;;;;;12.05;7.53;;;;;;;;;;5098015;28;20176;-60
2022/03/22 07:34:41;;;;;;;16.63;8.50;;;;;;;;;;5099918;28;20255;-60
2022/03/22 07:37:07;;;;;;;11.27;7.85;;;;;;;;;;5103662;28;20704;-60
2022/03/22 07:39:34;;;;;;;10.50;8.10;;;;;;;;;;5094466;28;20631;-60
2022/03/22 07:42:00;;;;;;;18.50;8.70;;;;;;;;;;5093296;28;20255;-60
2022/03/22 07:44:27;;;;;;;11.23;7.45;;;;;;;;;;5096158;28;20295;-60
2022/03/22 07:46:52;;;;;;;12.23;7.57;;;;;;;;;;5106316;28;20187;-60
2022/03/22 07:54:46;;;;;;;12.02;8.07;;;;;;;;;;5099034;28;20251;-60
2022/03/22 07:57:11;;;;;;;11.18;7.85;;;;;;;;;;5095263;28;20267;-60
2022/03/22 07:59:37;;;;;;;10.88;7.68;;;;;;;;;;5103742;28;20175;-60
2022/03/22 08:02:03;;;;;;;10.75;7.35;;;;;;;;;;5105270;28;20229;-60
2022/03/22 08:04:28;;;;;;;13.02;7.32;;;;;;;;;;5100191;28;20216;-60
2022/03/22 08:06:53;;;;;;;16.13;10.52;;;;;;;;;;5098208;28;20225;-60
2022/03/22 08:09:19;;;;;;;12.32;7.88;;;;;;;;;;5088480;28;20224;-60
2022/03/22 08:11:44;;;;;;;13.05;7.30;;;;;;;;;;5084209;28;20176;-60
2022/03/22 08:14:09;;;;;;;11.90;9.25;;;;;;;;;;5077034;28;20170;-60
2022/03/22 08:16:38;;;;;;;9.15;6.78;;;;;;;;;;5099225;28;20183;-60
2022/03/22 08:19:05;;;;;;;11.02;7.45;;;;;;;;;;5095451;28;20171;-60
2022/03/22 08:21:31;;;;;;;9.55;7.68;;;;;;;;;;5090764;28;20176;-60
2022/03/22 08:23:56;;;;;;;12.60;7.85;;;;;;;;;;5097414;28;20176;-60
2022/03/22 08:26:21;;;;;;;10.82;7.15;;;;;;;;;;5101118;28;20221;-60
2022/03/22 08:28:47;;;;;;;9.00;7.22;;;;;;;;;;5097843;28;20637;-60
2022/03/22 08:31:13;;;;;;;10.38;6.82;;;;;;;;;;5087815;28;20176;-60
2022/03/22 08:33:38;;;;;;;10.05;7.80;;;;;;;;;;5080301;28;20384;-60
2022/03/22 08:36:04;;;;;;;10.82;7.70;;;;;;;;;;5077025;28;20668;-60
2022/03/22 08:38:29;;;;;;;11.10;7.53;;;;;;;;;;5081536;28;20180;-60
2022/03/22 08:40:56;;;;;;;13.60;10.45;;;;;;;;;;5092076;28;20196;-60
2022/03/22 08:43:22;;;;;;;9.55;7.28;;;;;;;;;;5097264;28;20285;-60
2022/03/22 08:45:47;;;;;;;10.93;8.25;;;;;;;;;;5093973;28;20735;-60
2022/03/22 08:48:12;;;;;;;12.88;7.97;;;;;;;;;;5107558;28;20192;-60
2022/03/22 08:50:42;;;;;;;11.75;7.38;;;;;;;;;;5102378;28;20704;-60
2022/03/22 08:53:08;;;;;;;10.43;6.95;;;;;;;;;;5099568;28;20559;-59
2022/03/22 08:55:34;;;;;;;9.80;6.70;;;;;;;;;;5095562;28;20240;-60
2022/03/22 08:58:05;;;;;;;10.90;7.63;;;;;;;;;;5097446;28;20236;-60
2022/03/22 09:00:31;;;;;;;11.43;8.07;;;;;;;;;;5104441;28;20300;-60
2022/03/22 09:02:56;;;;;;;13.00;7.80;;;;;;;;;;5096026;28;20237;-60
2022/03/22 09:08:06;;;;;;;10.13;7.78;;;;;;;;;;5103004;28;20199;-60
2022/03/22 09:10:31;;;;;;;10.00;7.28;;;;;;;;;;5098577;28;20176;-60
2022/03/22 09:12:57;;;;;;;8.82;7.03;;;;;;;;;;5098017;28;20180;-60
2022/03/22 09:15:26;;;;;;;13.10;7.75;;;;;;;;;;5087906;28;20180;-60
2022/03/22 09:17:52;;;;;;;14.13;7.20;;;;;;;;;;5096799;28;20232;-60
2022/03/22 09:20:18;;;;;;;13.90;8.15;;;;;;;;;;5099305;28;20172;-60
2022/03/22 09:22:44;;;;;;;13.07;7.53;;;;;;;;;;5103205;28;20175;-60
2022/03/22 09:25:10;;;;;;;13.63;7.40;;;;;;;;;;5093773;28;20211;-60
2022/03/22 09:27:35;;;;;;;12.48;7.78;;;;;;;;;;5101580;28;20260;-60
2022/03/22 09:30:01;;;;;;;10.10;7.28;;;;;;;;;;5098836;28;20184;-60
2022/03/22 09:32:27;;;;;;;10.52;7.10;;;;;;;;;;5100169;28;20168;-60
2022/03/22 09:34:52;;;;;;;12.18;8.00;;;;;;;;;;5099599;28;20621;-60
2022/03/22 09:37:18;;;;;;;15.18;7.60;;;;;;;;;;5080616;28;20188;-60
2022/03/22 09:39:43;;;;;;;10.80;7.32;;;;;;;;;;5094393;28;20175;-60
2022/03/22 09:42:09;;;;;;;11.70;7.72;;;;;;;;;;5101013;28;20180;-60
2022/03/22 09:44:35;;;;;;;10.65;7.22;;;;;;;;;;5092595;28;20203;-60
2022/03/22 09:47:01;;;;;;;13.82;7.47;;;;;;;;;;5100866;28;20168;-61
2022/03/22 09:49:27;;;;;;;10.90;6.43;;;;;;;;;;5097398;28;20685;-60
2022/03/22 09:51:52;;;;;;;9.25;6.20;;;;;;;;;;5096280;28;20188;-60
2022/03/22 09:54:19;;;;;;;10.95;6.10;;;;;;;;;;5104908;28;20171;-60
2022/03/22 09:56:45;;;;;;;6.57;5.40;;;;;;;;;;5090093;28;20186;-60
2022/03/22 09:59:11;;;;;;;10.95;6.72;;;;;;;;;;5099729;28;20175;-60
2022/03/22 10:01:37;;;;;;;7.40;4.95;;;;;;;;;;5101371;28;20183;-60
2022/03/22 10:04:06;;;;;;;8.35;4.63;;;;;;;;;;5108821;28;20179;-60
2022/03/22 10:06:32;;;;;;;6.80;4.30;;;;;;;;;;5106081;28;20184;-60
2022/03/22 10:08:58;;;;;;;5.72;4.18;;;;;;;;;;5105739;28;20579;-60
2022/03/22 10:11:42;;;;;;;5.15;4.65;;;;;;;;;;5106274;28;20176;-60
2022/03/22 10:14:09;;;;;;;8.20;5.03;;;;;;;;;;5109089;28;20180;-60
2022/03/22 10:16:50;;;;;;;21.20;10.63;;;;;;;;;;5110509;28;20195;-60
2022/03/22 10:19:18;;;;;;;8.75;6.57;;;;;;;;;;5082870;28;20184;-60
2022/03/22 10:21:44;;;;;;;13.10;7.05;;;;;;;;;;5100522;28;20255;-60
2022/03/22 10:24:12;;;;;;;21.35;11.55;;;;;;;;;;5105196;28;20179;-60
2022/03/22 10:26:38;;;;;;;12.80;7.22;;;;;;;;;;5109072;28;20176;-60
2022/03/22 10:29:06;;;;;;;7.75;5.72;;;;;;;;;;5096486;28;20289;-60
2022/03/22 10:31:33;;;;;;;6.53;5.78;;;;;;;;;;5105623;28;20544;-60
2022/03/22 10:33:58;;;;;;;8.25;6.57;;;;;;;;;;5096823;27;20179;-60
2022/03/22 10:36:25;;;;;;;8.43;6.20;;;;;;;;;;5098439;28;20175;-60
2022/03/22 10:38:54;;;;;;;8.85;6.35;;;;;;;;;;5104573;28;20174;-61
2022/03/22 10:41:29;;;;;;;9.55;6.22;;;;;;;;;;5097549;28;20203;-60
2022/03/22 10:44:03;;;;;;;11.07;8.35;;;;;;;;;;5100956;28;20175;-60
2022/03/22 10:46:28;;;;;;;5.53;4.35;;;;;;;;;;5108516;28;20251;-60
2022/03/22 10:49:00;;;;;;;4.72;3.83;;;;;;;;;;5097359;28;20684;-60
2022/03/22 10:51:31;;;;;;;5.63;4.40;;;;;;;;;;5094656;28;20967;-60
2022/03/22 10:53:56;;;;;;;6.72;4.43;;;;;;;;;;5103606;28;20259;-60
2022/03/22 10:56:22;;;;;;;5.50;4.53;;;;;;;;;;5104393;28;20287;-60
2022/03/22 10:58:48;;;;;;;5.25;4.32;;;;;;;;;;5099790;28;20593;-60
2022/03/22 11:01:15;;;;;;;6.15;4.32;;;;;;;;;;5098807;28;20186;-60
2022/03/22 11:03:40;;;;;;;6.82;4.40;;;;;;;;;;5099592;28;20828;-60
2022/03/22 11:06:06;;;;;;;15.85;7.20;;;;;;;;;;5103973;28;20190;-60
2022/03/22 11:08:31;;;;;;;5.15;4.45;;;;;;;;;;5100623;28;20685;-60
2022/03/22 11:10:57;;;;;;;10.55;4.32;;;;;;;;;;5102708;28;20189;-60
2022/03/22 11:13:23;;;;;;;6.82;4.40;;;;;;;;;;5102823;28;20271;-60
2022/03/22 11:15:49;;;;;;;6.30;4.40;;;;;;;;;;5105358;28;20188;-61
2022/03/22 11:18:15;;;;;;;9.68;5.22;;;;;;;;;;5102966;28;20232;-60
2022/03/22 11:20:51;;;;;;;9.93;5.53;;;;;;;;;;5099643;28;20188;-60
2022/03/22 11:23:26;;;;;;;9.20;4.22;;;;;;;;;;5098085;28;20180;-60
2022/03/22 11:25:51;;;;;;;7.07;5.80;;;;;;;;;;5100059;28;20207;-60
2022/03/22 11:28:21;;;;;;;12.00;8.68;;;;;;;;;;5104097;28;20360;-61
2022/03/22 11:30:47;;;;;;;10.93;6.70;;;;;;;;;;5094342;28;20221;-60
2022/03/22 11:35:59;;;;;;;9.68;5.57;;;;;;;;;;5103417;28;20171;-60
2022/03/22 11:38:39;;;;;;;9.52;4.75;;;;;;;;;;5099458;28;20270;-60
2022/03/22 11:43:48;;;;;;;10.23;5.28;;;;;;;;;;5098066;28;20214;-60
2022/03/22 11:46:14;;;;;;;10.73;5.38;;;;;;;;;;5099133;28;20278;-61
2022/03/22 11:48:39;;;;;;;7.88;5.88;;;;;;;;;;5100588;28;20237;-60
2022/03/22 11:51:05;;;;;;;6.47;5.75;;;;;;;;;;5093979;28;20283;-60
2022/03/22 11:53:39;;;;;;;9.43;5.82;;;;;;;;;;5104085;28;20176;-60
2022/03/22 11:56:05;;;;;;;11.25;6.22;;;;;;;;;;5096741;28;20225;-60
2022/03/22 11:58:30;;;;;;;8.75;6.47;;;;;;;;;;5097750;28;20179;-60
2022/03/22 12:01:01;;;;;;;11.48;7.53;;;;;;;;;;5098315;28;20942;-60
2022/03/22 12:03:35;;;;;;;10.00;6.45;;;;;;;;;;5093108;28;20234;-61
2022/03/22 12:06:10;;;;;;;9.60;5.70;;;;;;;;;;5088140;28;20271;-60
2022/03/22 12:08:35;;;;;;;14.65;10.38;;;;;;;;;;5099675;28;20286;-61
2022/03/22 12:11:01;;;;;;;21.98;10.38;;;;;;;;;;5097715;28;20263;-60
2022/03/22 12:13:26;;;;;;;11.50;6.93;;;;;;;;;;5094631;28;20626;-61
2022/03/22 12:15:58;;;;;;;14.65;7.85;;;;;;;;;;5107302;28;20180;-60
2022/03/22 12:18:30;;;;;;;11.13;5.68;;;;;;;;;;5099788;28;20194;-61
2022/03/22 12:20:56;;;;;;;26.80;11.63;;;;;;;;;;5104326;28;20238;-60
2022/03/22 12:23:22;;;;;;;19.25;10.77;;;;;;;;;;5093619;27;20259;-60
2022/03/22 12:25:47;;;;;;;12.77;8.68;;;;;;;;;;5077667;28;20212;-60
2022/03/22 12:28:12;;;;;;;13.50;7.47;;;;;;;;;;5077759;28;21135;-61
2022/03/22 12:30:39;;;;;;;10.00;7.70;;;;;;;;;;5087751;28;20184;-61
2022/03/22 12:33:11;;;;;;;8.85;6.22;;;;;;;;;;5099561;28;20652;-60
2022/03/22 12:35:36;;;;;;;9.25;6.72;;;;;;;;;;5102700;28;20178;-60
2022/03/22 12:38:02;;;;;;;9.05;5.88;;;;;;;;;;5101225;28;20183;-60
2022/03/22 12:40:27;;;;;;;7.35;6.00;;;;;;;;;;5096667;28;20677;-60
2022/03/22 12:42:54;;;;;;;11.23;5.93;;;;;;;;;;5093658;28;20495;-60
2022/03/22 12:45:20;;;;;;;11.40;5.78;;;;;;;;;;5091228;28;20188;-60
2022/03/22 12:47:45;;;;;;;11.27;5.35;;;;;;;;;;5076357;28;20875;-60
2022/03/22 12:50:12;;;;;;;9.60;5.20;;;;;;;;;;5078388;28;20785;-61
2022/03/22 12:52:38;;;;;;;9.32;5.88;;;;;;;;;;5099632;28;21073;-60
2022/03/22 12:55:05;;;;;;;8.55;6.10;;;;;;;;;;5106096;28;20190;-60
2022/03/22 12:57:30;;;;;;;11.80;7.00;;;;;;;;;;5101574;28;20645;-60
2022/03/22 12:59:55;;;;;;;9.77;5.22;;;;;;;;;;5099993;28;20179;-60
2022/03/22 13:02:21;;;;;;;8.70;6.10;;;;;;;;;;5100284;28;20173;-60
2022/03/22 13:04:49;;;;;;;9.55;7.03;;;;;;;;;;5090712;28;20184;-60
2022/03/22 13:07:19;;;;;;;11.10;6.80;;;;;;;;;;5085032;28;20183;-60
2022/03/22 13:12:31;;;;;;;19.52;9.68;;;;;;;;;;5102109;28;20206;-60
2022/03/22 13:15:04;;;;;;;12.68;7.30;;;;;;;;;;5106998;28;20247;-60
2022/03/22 13:17:48;;;;;;;10.50;7.07;;;;;;;;;;5099092;28;20196;-60
2022/03/22 13:20:28;;;;;;;14.50;8.65;;;;;;;;;;5102519;28;20184;-60
2022/03/22 13:22:57;;;;;;;11.27;9.63;;;;;;;;;;5102455;28;20186;-60
2022/03/22 13:25:24;;;;;;;13.23;7.57;;;;;;;;;;5100718;28;20167;-60
2022/03/22 13:27:54;;;;;;;10.13;6.45;;;;;;;;;;5096008;28;20224;-60
2022/03/22 13:30:20;;;;;;;7.80;6.28;;;;;;;;;;5097066;28;20191;-60
2022/03/22 13:32:45;;;;;;;8.73;6.30;;;;;;;;;;5099116;28;20187;-60
2022/03/22 13:35:12;;;;;;;10.70;7.28;;;;;;;;;;5097068;28;20232;-60
2022/03/22 13:37:48;;;;;;;10.50;6.10;;;;;;;;;;5101092;28;20187;-60
2022/03/22 13:40:13;;;;;;;10.05;5.43;;;;;;;;;;5101932;28;20283;-60
2022/03/22 13:42:53;;;;;;;7.43;5.50;;;;;;;;;;5099756;28;20291;-60
2022/03/22 13:45:20;;;;;;;7.63;5.80;;;;;;;;;;5087682;28;20172;-60
2022/03/22 13:47:48;;;;;;;9.93;7.57;;;;;;;;;;5103951;28;20191;-60
2022/03/22 13:50:14;;;;;;;6.93;6.00;;;;;;;;;;5095055;28;20720;-60
2022/03/22 13:52:40;;;;;;;7.30;5.07;;;;;;;;;;5096992;28;20188;-60
2022/03/22 13:55:12;;;;;;;7.30;5.60;;;;;;;;;;5095245;28;20574;-60
2022/03/22 13:57:39;;;;;;;6.85;4.70;;;;;;;;;;5100473;28;20630;-60
2022/03/22 14:00:04;;;;;;;12.65;7.13;;;;;;;;;;5095478;28;20295;-60
2022/03/22 14:02:30;;;;;;;14.07;9.88;;;;;;;;;;5096636;28;20262;-60
2022/03/22 14:04:55;;;;;;;9.38;6.50;;;;;;;;;;5099532;28;20204;-60
2022/03/22 14:07:21;;;;;;;12.02;7.75;;;;;;;;;;5096539;28;20624;-60
2022/03/22 14:09:46;;;;;;;16.67;10.20;;;;;;;;;;5088478;28;20223;-60
2022/03/22 14:12:12;;;;;;;8.93;6.45;;;;;;;;;;5075947;28;20195;-60
2022/03/22 14:14:37;;;;;;;10.88;6.05;;;;;;;;;;5077623;28;20176;-60
2022/03/22 14:17:02;;;;;;;11.07;8.00;;;;;;;;;;5101103;28;20175;-60
2022/03/22 14:19:27;;;;;;;11.57;6.85;;;;;;;;;;5099044;28;20661;-60
2022/03/22 14:21:53;;;;;;;10.30;7.53;;;;;;;;;;5102050;28;21090;-60
2022/03/22 14:24:18;;;;;;;11.40;7.65;;;;;;;;;;5104864;28;20187;-60
2022/03/22 14:26:43;;;;;;;15.32;10.80;;;;;;;;;;5100690;28;20163;-60
2022/03/22 14:29:09;;;;;;;23.45;12.70;;;;;;;;;;5103641;28;20589;-60
2022/03/22 14:31:34;;;;;;;27.30;15.65;;;;;;;;;;5081648;28;20712;-60
2022/03/22 14:33:59;;;;;;;21.33;13.73;;;;;;;;;;5079398;28;20267;-60
2022/03/22 14:36:27;;;;;;;31.55;15.90;;;;;;;;;;5083622;28;20267;-60
2022/03/22 14:38:52;;;;;;;25.02;15.88;;;;;;;;;;5096741;28;20191;-61
2022/03/22 14:41:27;;;;;;;25.77;13.38;;;;;;;;;;5090619;28;20192;-60
2022/03/22 14:43:54;;;;;;;24.42;13.93;;;;;;;;;;5096939;28;20297;-60
2022/03/22 14:46:20;;;;;;;17.80;10.57;;;;;;;;;;5099276;28;20208;-60
2022/03/22 14:48:49;;;;;;;22.15;12.00;;;;;;;;;;5097904;28;20238;-61
2022/03/22 14:51:15;;;;;;;22.67;12.50;;;;;;;;;;5099877;28;20278;-60
2022/03/22 14:59:08;;;;;;;18.13;12.15;;;;;;;;;;5104898;28;20203;-60
2022/03/22 15:01:34;;;;;;;15.02;10.70;;;;;;;;;;5102564;28;20630;-60
2022/03/22 15:04:02;;;;;;;15.82;8.48;;;;;;;;;;5106723;28;20218;-60
2022/03/22 15:06:28;;;;;;;17.27;8.95;;;;;;;;;;5107097;28;20194;-60
2022/03/22 15:08:54;;;;;;;20.20;8.38;;;;;;;;;;5100977;28;20582;-60
2022/03/22 15:11:20;;;;;;;19.27;8.40;;;;;;;;;;5099680;28;20187;-60